createdAt,value
2019-04-26T05:02:59.682Z,16.82
2019-04-26T05:06:07.740Z,15.68
2019-04-26T05:08:38.913Z,17.65
2019-04-26T05:11:20.916Z,16.35
2019-04-26T05:13:59.920Z,17.10
2019-04-26T05:16:40.163Z,17.27
2019-04-26T05:19:29.187Z,17.73
2019-04-26T05:22:17.021Z,15.23
2019-04-26T05:25:17.573Z,16.80
2019-04-26T05:28:09.945Z,16.12
2019-04-26T05:31:08.648Z,16.15
2019-04-26T05:34:00.593Z,17.87
2019-04-26T05:36:36.322Z,17.02
2019-04-26T05:39:21.501Z,17.65
2019-04-26T05:42:12.036Z,19.25
2019-04-26T05:45:07.563Z,17.87
2019-04-26T05:48:06.246Z,16.52
2019-04-26T05:50:50.864Z,16.65
2019-04-26T05:54:04.049Z,18.50
2019-04-26T05:57:06.527Z,18.67
2019-04-26T06:00:26.969Z,16.25
2019-04-26T06:03:28.338Z,17.15
2019-04-26T06:06:20.765Z,17.42
2019-04-26T06:09:01.736Z,16.23
2019-04-26T06:11:44.088Z,17.40
2019-04-26T06:14:39.932Z,17.30
2019-04-26T06:17:29.100Z,15.10
2019-04-26T06:20:23.615Z,16.00
2019-04-26T06:22:58.231Z,18.50
2019-04-26T06:26:15.039Z,21.17
2019-04-26T06:29:03.334Z,17.90
2019-04-26T06:31:36.436Z,17.23
2019-04-26T06:34:18.326Z,16.23
2019-04-26T06:36:56.135Z,15.98
2019-04-26T06:39:38.480Z,16.70
2019-04-26T06:42:20.299Z,15.83
2019-04-26T06:45:17.508Z,14.83
2019-04-26T06:48:25.572Z,17.15
2019-04-26T06:51:23.483Z,16.10
2019-04-26T06:53:48.183Z,17.48
2019-04-26T06:56:22.864Z,14.90
2019-04-26T06:59:36.214Z,18.60
2019-04-26T07:02:06.707Z,18.25
2019-04-26T07:04:39.778Z,16.12
2019-04-26T07:07:31.070Z,14.58
2019-04-26T07:10:10.988Z,18.27
2019-04-26T07:13:02.239Z,14.93
2019-04-26T07:15:51.656Z,16.70
2019-04-26T07:18:41.155Z,17.73
2019-04-26T07:21:36.925Z,14.90
2019-04-26T07:24:35.179Z,15.78
2019-04-26T07:27:13.890Z,15.70
2019-04-26T07:30:09.849Z,16.12
2019-04-26T07:33:12.826Z,15.20
2019-04-26T07:35:58.905Z,16.00
2019-04-26T07:38:52.885Z,16.05
2019-04-26T07:41:47.570Z,15.53
2019-04-26T07:44:33.843Z,16.67
2019-04-26T07:47:26.656Z,15.60
2019-04-26T07:50:16.413Z,14.87
2019-04-26T07:53:24.610Z,15.25
2019-04-26T07:56:07.123Z,15.68
2019-04-26T07:58:55.597Z,15.15
2019-04-26T08:01:36.447Z,14.50
2019-04-26T08:04:11.539Z,15.48
2019-04-26T08:06:59.554Z,16.50
2019-04-26T08:09:32.593Z,15.70
2019-04-26T08:12:10.017Z,13.98
2019-04-26T08:14:47.588Z,15.08
2019-04-26T08:17:28.121Z,19.15
2019-04-26T08:20:28.142Z,14.45
2019-04-26T08:23:02.619Z,13.78
2019-04-26T08:25:34.555Z,15.28
2019-04-26T08:28:08.415Z,13.75
2019-04-26T08:30:44.914Z,13.10
2019-04-26T08:33:16.164Z,12.78
2019-04-26T08:35:52.945Z,12.65
2019-04-26T08:38:22.758Z,12.58
2019-04-26T08:40:53.706Z,12.93
2019-04-26T08:43:44.251Z,12.65
2019-04-26T08:46:32.320Z,11.75
2019-04-26T08:49:08.314Z,13.08
2019-04-26T08:51:41.942Z,11.93
2019-04-26T08:54:14.180Z,13.70
2019-04-26T08:56:47.256Z,12.15
2019-04-26T08:59:20.301Z,12.78
2019-04-26T09:01:55.970Z,10.93
2019-04-26T09:04:43.416Z,11.73
2019-04-26T09:07:20.777Z,12.03
2019-04-26T09:09:57.449Z,11.15
2019-04-26T09:12:28.084Z,11.08
2019-04-26T09:15:01.169Z,7.10
2019-04-26T09:17:33.816Z,8.10
2019-04-26T09:20:07.959Z,10.65
2019-04-26T09:22:46.760Z,9.98
2019-04-26T09:25:22.696Z,10.60
2019-04-26T09:27:58.965Z,9.83
2019-04-26T09:30:34.131Z,9.83
2019-04-26T09:33:10.140Z,10.58
2019-04-26T09:35:40.213Z,8.80
2019-04-26T09:38:11.170Z,10.08
2019-04-26T09:40:41.087Z,10.08
2019-04-26T09:43:15.247Z,10.03
2019-04-26T09:45:52.058Z,10.45
2019-04-26T09:48:23.662Z,9.13
2019-04-26T09:50:55.462Z,9.68
2019-04-26T09:53:25.421Z,10.20
2019-04-26T09:55:55.422Z,9.63
2019-04-26T09:58:26.772Z,9.33
2019-04-26T10:00:57.079Z,5.90
2019-04-26T10:03:27.040Z,5.55
2019-04-26T10:05:57.135Z,6.20
2019-04-26T10:08:27.180Z,6.30
2019-04-26T10:10:58.274Z,5.58
2019-04-26T10:13:29.870Z,5.83
2019-04-26T10:16:13.464Z,4.87
2019-04-26T10:18:45.065Z,4.97
2019-04-26T10:21:15.069Z,5.05
2019-04-26T10:23:45.031Z,5.62
2019-04-26T10:26:15.021Z,5.62
2019-04-26T10:28:46.749Z,5.83
2019-04-26T10:31:17.185Z,5.40
2019-04-26T10:33:47.351Z,5.17
2019-04-26T10:36:17.413Z,5.40
2019-04-26T10:38:47.368Z,5.33
2019-04-26T10:41:17.536Z,4.67
2019-04-26T10:43:47.548Z,5.58
2019-04-26T10:46:17.678Z,5.67
2019-04-26T10:48:49.928Z,6.12
2019-04-26T10:51:20.894Z,5.67
2019-04-26T10:53:55.340Z,5.10
2019-04-26T10:56:39.039Z,6.15
2019-04-26T10:59:11.019Z,6.22
2019-04-26T11:01:41.326Z,6.17
2019-04-26T11:04:11.358Z,6.47
2019-04-26T11:06:43.260Z,6.70
2019-04-26T11:09:13.273Z,7.28
2019-04-26T11:11:43.321Z,6.45
2019-04-26T11:14:13.294Z,5.97
2019-04-26T11:16:43.416Z,5.78
2019-04-26T11:19:14.442Z,5.78
2019-04-26T11:21:44.514Z,6.35
2019-04-26T11:24:15.168Z,6.37
2019-04-26T11:26:46.089Z,6.72
2019-04-26T11:29:16.064Z,5.85
2019-04-26T11:31:46.058Z,6.20
2019-04-26T11:34:19.243Z,6.42
2019-04-26T11:36:47.633Z,6.50
2019-04-26T11:39:18.167Z,6.47
2019-04-26T11:41:48.269Z,6.50
2019-04-26T11:44:18.221Z,7.92
2019-04-26T11:46:48.257Z,6.05
2019-04-26T11:49:18.327Z,6.25
2019-04-26T11:51:48.398Z,5.95
2019-04-26T11:54:20.846Z,5.83
2019-04-26T11:56:50.408Z,6.37
2019-04-26T11:59:20.674Z,6.92
2019-04-26T12:01:50.706Z,5.65
2019-04-26T12:04:22.366Z,5.83
2019-04-26T12:06:57.010Z,5.78
2019-04-26T12:09:31.449Z,6.75
2019-04-26T12:14:33.514Z,5.50
2019-04-26T12:17:05.284Z,6.28
2019-04-26T12:19:35.375Z,5.50
2019-04-26T12:22:08.221Z,4.87
2019-04-26T12:24:37.619Z,5.20
2019-04-26T12:27:10.118Z,5.33
2019-04-26T12:29:39.357Z,5.83
2019-04-26T12:32:09.440Z,5.83
2019-04-26T12:34:40.518Z,5.30
2019-04-26T12:37:12.608Z,7.12
2019-04-26T12:39:42.086Z,4.90
2019-04-26T12:42:13.701Z,6.17
2019-04-26T12:44:55.585Z,5.75
2019-04-26T12:47:27.201Z,6.37
2019-04-26T12:49:58.870Z,5.40
2019-04-26T12:52:28.961Z,6.10
2019-04-26T12:54:58.921Z,6.10
2019-04-26T12:57:28.937Z,5.08
2019-04-26T13:00:01.765Z,5.30
2019-04-26T13:02:30.802Z,5.80
2019-04-26T13:05:00.851Z,5.80
2019-04-26T13:07:31.194Z,4.85
2019-04-26T13:10:21.240Z,5.83
2019-04-26T13:13:10.811Z,7.40
2019-04-26T13:15:56.624Z,7.37
2019-04-26T13:18:26.948Z,7.37
2019-04-26T13:20:58.518Z,7.80
2019-04-26T13:23:31.106Z,7.55
2019-04-26T13:26:01.553Z,7.65
2019-04-26T13:28:32.771Z,7.15
2019-04-26T13:31:02.767Z,7.58
2019-04-26T13:33:32.721Z,6.97
2019-04-26T13:36:03.354Z,7.65
2019-04-26T13:38:33.562Z,7.25
2019-04-26T13:41:06.212Z,6.70
2019-04-26T13:43:35.987Z,7.53
2019-04-26T13:46:10.428Z,7.50
2019-04-26T13:48:43.875Z,7.28
2019-04-26T13:51:28.366Z,7.17
2019-04-26T13:53:58.333Z,7.53
2019-04-26T13:56:28.315Z,7.45
2019-04-26T13:58:59.815Z,7.17
2019-04-26T14:01:29.951Z,6.37
2019-04-26T14:04:02.462Z,6.25
2019-04-26T14:06:32.577Z,6.65
2019-04-26T14:09:03.005Z,6.37
2019-04-26T14:11:34.769Z,5.20
2019-04-26T14:14:04.735Z,5.60
2019-04-26T14:16:34.970Z,5.85
2019-04-26T14:19:05.354Z,5.92
2019-04-26T14:21:35.292Z,6.37
2019-04-26T14:24:13.055Z,5.90
2019-04-26T14:26:47.525Z,5.25
2019-04-26T14:31:47.245Z,5.40
2019-04-26T14:34:18.122Z,5.50
2019-04-26T14:36:48.350Z,3.67
2019-04-26T14:39:20.983Z,4.97
2019-04-26T14:41:52.725Z,5.42
2019-04-26T14:44:21.748Z,5.37
2019-04-26T14:46:53.339Z,4.58
2019-04-26T14:49:24.984Z,4.83
2019-04-26T14:51:56.952Z,5.30
2019-04-26T14:54:26.673Z,4.35
2019-04-26T14:56:59.867Z,4.70
2019-04-26T14:59:46.951Z,5.00
2019-04-26T15:02:30.200Z,4.95
2019-04-26T15:05:18.551Z,4.97
2019-04-26T15:07:51.521Z,5.10
2019-04-26T15:10:21.576Z,5.78
2019-04-26T15:12:58.361Z,8.80
2019-04-26T15:15:26.883Z,7.85
2019-04-26T15:17:59.586Z,9.50
2019-04-26T15:20:27.388Z,10.70
2019-04-26T15:22:57.398Z,8.15
2019-04-26T15:25:27.490Z,6.85
2019-04-26T15:27:58.013Z,18.90
2019-04-26T15:30:28.238Z,4.15
2019-04-26T15:32:58.265Z,3.08
2019-04-26T15:35:28.378Z,8.03
2019-04-26T15:38:01.481Z,2.72
2019-04-26T15:40:36.494Z,5.15
2019-04-26T15:43:24.046Z,3.02
2019-04-26T15:47:43.194Z,2.87
2019-04-26T15:50:24.269Z,2.90
2019-04-26T15:52:54.567Z,2.33
2019-04-26T15:55:25.122Z,2.42
2019-04-26T15:57:55.357Z,2.40
2019-04-26T16:00:28.434Z,3.17
2019-04-26T16:02:58.686Z,2.45
2019-04-26T16:05:30.939Z,2.58
2019-04-26T16:08:04.345Z,2.30
2019-04-26T16:10:38.199Z,2.50
2019-04-26T16:13:17.985Z,2.35
2019-04-26T16:15:38.867Z,2.17
2019-04-26T16:18:10.582Z,2.35
2019-04-26T16:20:42.830Z,2.30
2019-04-26T16:23:13.471Z,2.17
2019-04-26T16:25:43.847Z,2.22
2019-04-26T16:28:27.174Z,2.58
2019-04-26T16:31:15.419Z,2.40
2019-04-26T16:33:48.592Z,2.58
2019-04-26T16:36:18.935Z,2.98
2019-04-26T16:38:56.102Z,2.52
2019-04-26T16:41:21.911Z,2.77
2019-04-26T16:43:54.611Z,2.90
2019-04-26T16:46:25.018Z,2.58
2019-04-26T16:49:03.805Z,2.85
2019-04-26T16:51:27.382Z,2.60
2019-04-26T16:54:06.981Z,2.90
2019-04-26T16:56:29.376Z,2.90
2019-04-26T16:58:59.820Z,3.30
2019-04-26T17:01:30.461Z,3.35
2019-04-26T17:04:00.752Z,3.52
2019-04-26T17:06:31.208Z,4.05
2019-04-26T17:09:05.112Z,3.72
2019-04-26T17:11:41.074Z,3.53
2019-04-26T17:14:10.223Z,3.25
2019-04-26T17:16:42.433Z,3.87
2019-04-26T17:19:13.683Z,4.30
2019-04-26T17:21:56.640Z,3.92
2019-04-26T17:24:38.067Z,4.00
2019-04-26T17:27:09.859Z,4.15
2019-04-26T17:29:42.323Z,3.50
2019-04-26T17:32:17.270Z,4.35
2019-04-26T17:34:46.236Z,6.37
2019-04-26T17:37:17.596Z,8.58
2019-04-26T17:39:52.151Z,7.17
2019-04-26T17:42:21.032Z,9.25
2019-04-26T17:44:51.848Z,11.50
2019-04-26T17:47:22.461Z,11.00
2019-04-26T17:49:53.038Z,11.93
2019-04-26T17:52:23.823Z,12.65
2019-04-26T17:54:57.139Z,12.73
2019-04-26T17:57:34.819Z,15.10
2019-04-26T18:00:07.329Z,16.20
2019-04-26T18:02:42.061Z,17.67
2019-04-26T18:05:08.374Z,16.40
2019-04-26T18:07:43.674Z,17.35
2019-04-26T18:10:13.447Z,16.12
2019-04-26T18:12:45.971Z,17.07
2019-04-26T18:15:19.265Z,17.92
2019-04-26T18:17:53.680Z,16.57
2019-04-26T18:20:41.424Z,18.80
2019-04-26T18:23:15.357Z,18.70
2019-04-26T18:25:46.977Z,20.52
2019-04-26T18:28:17.911Z,21.20
2019-04-26T18:30:50.078Z,21.87
2019-04-26T18:33:24.153Z,24.45
2019-04-26T18:35:57.474Z,23.15
2019-04-26T18:38:26.372Z,23.10
2019-04-26T18:41:00.985Z,24.15
2019-04-26T18:43:29.475Z,21.57
2019-04-26T18:46:06.625Z,21.40
2019-04-26T18:48:40.728Z,20.62
2019-04-26T18:51:11.088Z,20.43
2019-04-26T18:53:43.819Z,20.45
2019-04-26T18:56:15.121Z,19.67
2019-04-26T18:58:45.956Z,19.48
2019-04-26T19:01:18.164Z,19.52
2019-04-26T19:03:49.471Z,18.40
2019-04-26T19:06:29.778Z,16.77
2019-04-26T19:08:57.535Z,16.07
2019-04-26T19:11:25.970Z,14.40
2019-04-26T19:14:15.274Z,15.32
2019-04-26T19:16:58.712Z,13.20
2019-04-26T19:19:38.066Z,13.95
2019-04-26T19:22:15.871Z,13.58
2019-04-26T19:24:42.619Z,11.33
2019-04-26T19:27:13.689Z,10.58
2019-04-26T19:29:45.953Z,11.28
2019-04-26T19:32:21.274Z,11.90
2019-04-26T19:34:54.117Z,10.85
2019-04-26T19:37:25.592Z,10.20
2019-04-26T19:39:56.768Z,10.90
2019-04-26T19:42:30.878Z,10.85
2019-04-26T19:45:11.919Z,11.45
2019-04-26T19:47:42.286Z,9.93
2019-04-26T19:50:13.941Z,11.80
2019-04-26T19:52:51.729Z,11.85
2019-04-26T19:55:31.903Z,11.83
2019-04-26T19:58:20.369Z,11.25
2019-04-26T20:00:49.431Z,11.18
2019-04-26T20:03:21.596Z,10.43
2019-04-26T20:05:53.465Z,11.03
2019-04-26T20:08:24.019Z,10.25
2019-04-26T20:10:54.610Z,10.50
2019-04-26T20:13:25.455Z,10.03
2019-04-26T20:16:02.710Z,10.58
2019-04-26T20:18:32.748Z,10.10
2019-04-26T20:21:06.497Z,10.38
2019-04-26T20:23:38.343Z,12.20
2019-04-26T20:26:09.135Z,10.23
2019-04-26T20:28:39.820Z,11.50
2019-04-26T20:31:30.786Z,11.12
2019-04-26T20:34:05.480Z,10.78
2019-04-26T20:36:40.756Z,11.05
2019-04-26T20:39:08.888Z,10.55
2019-04-26T20:41:40.884Z,10.00
2019-04-26T20:44:12.769Z,10.95
2019-04-26T20:46:43.580Z,10.90
2019-04-26T20:49:14.110Z,10.38
2019-04-26T20:51:46.270Z,10.18
2019-04-26T20:54:17.461Z,11.75
2019-04-26T20:56:52.552Z,10.82
2019-04-26T20:59:23.505Z,10.60
2019-04-26T21:02:03.482Z,9.53
2019-04-26T21:04:36.878Z,9.25
2019-04-26T21:06:58.366Z,9.08
2019-04-26T21:09:30.122Z,8.63
2019-04-26T21:12:01.877Z,8.00
2019-04-26T21:14:32.802Z,7.40
2019-04-26T21:17:05.006Z,7.37
2019-04-26T21:19:35.598Z,7.62
2019-04-26T21:22:06.535Z,8.15
2019-04-26T21:24:46.129Z,7.28
2019-04-26T21:27:18.447Z,5.85
